Nearby METAR Reports

 

EGNR - Hawarden (aut), United Kingdom
Distance from station: ESE 33mi, 53km
Updated: 12/08/2020 07:50
Mist, Mostly cloudy
Mist, Mostly cloudy
 Wind from varies
Wind: varies 1 mph , 2 km/h
Temperature: 18°C
Dew Point: 18°C
Humidity: 100%
Barometer: 1015 hPa
Summary: Mist
Clouds: Mostly cloudy
Visibility: 1 mile , 2 km
Cloud details: Mostly cloudy 30 m
2020/08/12 06:50 EGNR 120650Z VRB01KT 1700 BR BKN001 18/18 Q1015
EGOV - Valley Raf, United Kingdom
Distance from station: W 33mi, 53km
Updated: 12/08/2020 07:50
Clear
Clear
 Wind from N
Wind: N 6 mph , 9 km/h
Temperature: 16°C
Dew Point: 15°C
Humidity: 94%
Barometer: 1014 hPa
Summary: Clear
Visibility: greater than 7 miles , 10 km
2020/08/12 06:50 EGOV 120650Z 01005KT CAVOK 16/15 Q1014 NOSIG RMK BLU BLU
 
EGGP - Liverpool Airpor, United Kingdom
Distance from station: E 37mi, 59km
Updated: 12/08/2020 07:50
Haze, Partly cloudy
Haze, Partly cloudy
 Wind from varies
Wind: varies 1 mph , 2 km/h
Temperature: 20°C
Dew Point: 18°C
Humidity: 88%
Barometer: 1014 hPa
Summary: Haze
Clouds: Partly cloudy
Visibility: 3 miles , 5 km
2020/08/12 06:50 EGGP 120650Z VRB01KT 5000 HZ NSC 20/18 Q1014
EGNH - Blackpool Airpor, United Kingdom
Distance from station: NE 44mi, 72km
Updated: 12/08/2020 07:50
Few Clouds
Few Clouds
 Wind from varies
Wind: varies 2 mph , 4 km/h
Temperature: 19°C
Dew Point: 18°C
Humidity: 94%
Barometer: 1014 hPa
Clouds: Few Clouds
Visibility: 4 miles , 7 km
Cloud details: Few Clouds 1158 m
2020/08/12 06:50 EGNH 120650Z VRB02KT 7000 FEW038 19/18 Q1014
 
EGNO - Wharton, United Kingdom
Distance from station: NE 47mi, 76km
Updated: 11/08/2020 12:20
NOT Current
Clear
Clear
 Wind from ESE
Wind: ESE 6 mph , 9 km/h
Temperature: 24°C
Dew Point: 19°C
Humidity: 74%
Barometer: 1016 hPa
Summary: Clear
Visibility: greater than 7 miles , 10 km
2020/08/11 11:20 EGNO 111120Z 12005KT 070V170 CAVOK 24/19 Q1016
EGOS - Shawbury Raf, United Kingdom
Distance from station: SE 56mi, 89km
Updated: 12/08/2020 07:50
Mist, Few clouds
Mist, Few clouds
 Wind from NNE
Wind: NNE 2 mph , 4 km/h
Temperature: 18°C
Dew Point: 18°C
Humidity: 100%
Barometer: 1014 hPa
Summary: Mist
Clouds: Few Clouds
Visibility: 2 miles , 3 km
Cloud details: Few Clouds 2438 m
2020/08/12 06:50 EGOS 120650Z 03002KT 2500 BR FEW080 18/18 Q1014 BECMG 5000 HZ RMK YLO1 BECMG
 
EGCC - Manchester Intl, United Kingdom
Distance from station: E 61mi, 98km
Updated: 12/08/2020 07:50
Mist, Partly cloudy
Mist, Partly cloudy
 Wind from varies
Wind: varies 2 mph , 4 km/h
Temperature: 18°C
Dew Point: 18°C
Humidity: 100%
Barometer: 1015 hPa
Summary: Mist
Clouds: Partly cloudy
Visibility: 3 miles , 5 km
Cloud details: Partly cloudy 30 m
2020/08/12 06:50 EGCC 120650Z AUTO VRB02KT 4900 BR SCT001 18/18 Q1015 BECMG 6000 NSW
EGNS - Isle Of Man/Rona, United Kingdom
Distance from station: NW 66mi, 107km
Updated: 12/08/2020 07:20
Few Clouds
Few Clouds
 Wind from varies
Wind: varies 3 mph , 6 km/h
Temperature: 18°C
Dew Point: 16°C
Humidity: 88%
Barometer: 1014 hPa
Clouds: Few Clouds
Visibility: 6 miles , 10 km
Cloud details: Few Clouds 183 m
2020/08/12 06:20 EGNS 120620Z VRB03KT 9999 FEW006 18/16 Q1014 NOSIG
 
EGNM - Leeds And Bradfo, United Kingdom
Distance from station: ENE 95mi, 153km
Updated: 12/08/2020 07:50
Mist, Partly cloudy
Mist, Partly cloudy
 Wind from varies
Wind: varies 3 mph , 6 km/h
Temperature: 18°C
Dew Point: 17°C
Humidity: 94%
Barometer: 1015 hPa
Summary: Mist
Clouds: Partly cloudy
Visibility: 2 miles , 4 km
2020/08/12 06:50 EGNM 120650Z VRB03KT 3500 BR NSC 18/17 Q1015
EGBB - Birmingham Airpo, United Kingdom
Distance from station: ESE 100mi, 161km
Updated: 12/08/2020 07:50
Partly cloudy
Partly cloudy
 Wind from NNW
Wind: NNW 2 mph , 4 km/h
Temperature: 21°C
Dew Point: 18°C
Humidity: 83%
Barometer: 1014 hPa
Clouds: Partly cloudy
Visibility: 4 miles , 7 km
2020/08/12 06:50 EGBB 120650Z 33002KT 7000 NSC 21/18 Q1014